sensor_id;sensor_type;location;lat;lon;timestamp;P1;durP1;ratioP1;P2;durP2;ratioP2
55148;SDS011;49539;48.160;11.530;2023-08-06T00:00:19;6.93;;;4.10;;
55148;SDS011;49539;48.160;11.530;2023-08-06T00:02:44;9.50;;;4.45;;
55148;SDS011;49539;48.160;11.530;2023-08-06T00:05:10;6.50;;;3.38;;
55148;SDS011;49539;48.160;11.530;2023-08-06T00:07:35;7.80;;;3.90;;
55148;SDS011;49539;48.160;11.530;2023-08-06T00:10:01;10.02;;;3.35;;
55148;SDS011;49539;48.160;11.530;2023-08-06T00:12:26;7.03;;;3.55;;
55148;SDS011;49539;48.160;11.530;2023-08-06T00:14:52;6.85;;;3.90;;
55148;SDS011;49539;48.160;11.530;2023-08-06T00:17:17;7.35;;;3.72;;
55148;SDS011;49539;48.160;11.530;2023-08-06T00:19:44;5.65;;;3.35;;
55148;SDS011;49539;48.160;11.530;2023-08-06T00:22:09;7.70;;;3.83;;
55148;SDS011;49539;48.160;11.530;2023-08-06T00:24:35;5.47;;;3.45;;
55148;SDS011;49539;48.160;11.530;2023-08-06T00:27:00;8.10;;;3.85;;
55148;SDS011;49539;48.160;11.530;2023-08-06T00:29:25;4.97;;;3.25;;
55148;SDS011;49539;48.160;11.530;2023-08-06T00:31:51;5.82;;;3.25;;
55148;SDS011;49539;48.160;11.530;2023-08-06T00:34:16;6.65;;;2.90;;
55148;SDS011;49539;48.160;11.530;2023-08-06T00:36:41;5.38;;;3.35;;
55148;SDS011;49539;48.160;11.530;2023-08-06T00:39:07;5.68;;;2.53;;
55148;SDS011;49539;48.160;11.530;2023-08-06T00:41:33;5.68;;;3.08;;
55148;SDS011;49539;48.160;11.530;2023-08-06T00:43:58;4.93;;;3.13;;
55148;SDS011;49539;48.160;11.530;2023-08-06T00:46:23;7.30;;;3.53;;
55148;SDS011;49539;48.160;11.530;2023-08-06T00:48:49;7.68;;;4.15;;
55148;SDS011;49539;48.160;11.530;2023-08-06T00:51:15;7.05;;;4.40;;
55148;SDS011;49539;48.160;11.530;2023-08-06T00:53:40;8.25;;;2.92;;
55148;SDS011;49539;48.160;11.530;2023-08-06T00:56:06;5.05;;;2.70;;
55148;SDS011;49539;48.160;11.530;2023-08-06T00:58:32;6.10;;;3.47;;
55148;SDS011;49539;48.160;11.530;2023-08-06T01:00:57;5.57;;;3.08;;
55148;SDS011;49539;48.160;11.530;2023-08-06T01:03:22;6.78;;;4.32;;
55148;SDS011;49539;48.160;11.530;2023-08-06T01:05:48;5.32;;;2.88;;
55148;SDS011;49539;48.160;11.530;2023-08-06T01:13:23;6.10;;;2.63;;
55148;SDS011;49539;48.160;11.530;2023-08-06T01:15:50;5.75;;;2.85;;
55148;SDS011;49539;48.160;11.530;2023-08-06T01:18:18;5.60;;;3.10;;
55148;SDS011;49539;48.160;11.530;2023-08-06T01:20:43;5.40;;;2.83;;
55148;SDS011;49539;48.160;11.530;2023-08-06T01:23:08;5.45;;;3.40;;
55148;SDS011;49539;48.160;11.530;2023-08-06T01:25:35;5.63;;;3.45;;
55148;SDS011;49539;48.160;11.530;2023-08-06T01:28:06;5.68;;;3.28;;
55148;SDS011;49539;48.160;11.530;2023-08-06T01:30:33;7.18;;;3.72;;
55148;SDS011;49539;48.160;11.530;2023-08-06T01:33:04;6.85;;;3.90;;
55148;SDS011;49539;48.160;11.530;2023-08-06T01:35:30;9.23;;;4.93;;
55148;SDS011;49539;48.160;11.530;2023-08-06T01:37:56;9.98;;;4.00;;
55148;SDS011;49539;48.160;11.530;2023-08-06T01:40:21;7.82;;;4.25;;
55148;SDS011;49539;48.160;11.530;2023-08-06T01:42:46;7.13;;;4.07;;
55148;SDS011;49539;48.160;11.530;2023-08-06T01:45:12;7.22;;;4.03;;
55148;SDS011;49539;48.160;11.530;2023-08-06T01:47:37;6.97;;;3.80;;
55148;SDS011;49539;48.160;11.530;2023-08-06T01:50:02;7.27;;;4.37;;
55148;SDS011;49539;48.160;11.530;2023-08-06T01:52:28;6.82;;;4.40;;
55148;SDS011;49539;48.160;11.530;2023-08-06T01:54:53;9.82;;;4.25;;
55148;SDS011;49539;48.160;11.530;2023-08-06T01:57:19;7.28;;;4.10;;
55148;SDS011;49539;48.160;11.530;2023-08-06T01:59:44;8.80;;;3.87;;
55148;SDS011;49539;48.160;11.530;2023-08-06T02:02:09;9.15;;;5.10;;
55148;SDS011;49539;48.160;11.530;2023-08-06T02:04:35;10.70;;;4.05;;
55148;SDS011;49539;48.160;11.530;2023-08-06T02:07:00;8.40;;;4.72;;
55148;SDS011;49539;48.160;11.530;2023-08-06T02:09:25;6.70;;;3.78;;
55148;SDS011;49539;48.160;11.530;2023-08-06T02:11:50;7.10;;;3.42;;
55148;SDS011;49539;48.160;11.530;2023-08-06T02:14:16;6.10;;;3.65;;
55148;SDS011;49539;48.160;11.530;2023-08-06T02:16:41;8.18;;;3.83;;
55148;SDS011;49539;48.160;11.530;2023-08-06T02:19:06;6.05;;;3.15;;
55148;SDS011;49539;48.160;11.530;2023-08-06T02:21:32;7.03;;;3.63;;
55148;SDS011;49539;48.160;11.530;2023-08-06T02:23:57;5.25;;;2.72;;
55148;SDS011;49539;48.160;11.530;2023-08-06T02:26:22;5.93;;;3.13;;
55148;SDS011;49539;48.160;11.530;2023-08-06T02:28:48;6.13;;;3.75;;
55148;SDS011;49539;48.160;11.530;2023-08-06T02:31:13;5.90;;;3.20;;
55148;SDS011;49539;48.160;11.530;2023-08-06T02:33:38;4.65;;;2.97;;
55148;SDS011;49539;48.160;11.530;2023-08-06T02:36:04;6.50;;;3.35;;
55148;SDS011;49539;48.160;11.530;2023-08-06T02:38:30;6.75;;;2.90;;
55148;SDS011;49539;48.160;11.530;2023-08-06T02:40:55;7.47;;;3.40;;
55148;SDS011;49539;48.160;11.530;2023-08-06T02:43:20;6.47;;;3.10;;
55148;SDS011;49539;48.160;11.530;2023-08-06T02:45:45;5.00;;;3.17;;
55148;SDS011;49539;48.160;11.530;2023-08-06T02:48:11;9.02;;;3.25;;
55148;SDS011;49539;48.160;11.530;2023-08-06T02:50:39;6.13;;;3.70;;
55148;SDS011;49539;48.160;11.530;2023-08-06T02:53:05;6.38;;;3.30;;
55148;SDS011;49539;48.160;11.530;2023-08-06T02:55:31;6.15;;;3.05;;
55148;SDS011;49539;48.160;11.530;2023-08-06T02:57:56;4.53;;;2.70;;
55148;SDS011;49539;48.160;11.530;2023-08-06T03:00:22;4.65;;;2.40;;
55148;SDS011;49539;48.160;11.530;2023-08-06T03:02:47;6.80;;;2.70;;
55148;SDS011;49539;48.160;11.530;2023-08-06T03:05:12;4.83;;;3.00;;
55148;SDS011;49539;48.160;11.530;2023-08-06T03:07:37;5.45;;;2.83;;
55148;SDS011;49539;48.160;11.530;2023-08-06T03:10:03;5.87;;;2.43;;
55148;SDS011;49539;48.160;11.530;2023-08-06T03:12:28;4.35;;;2.38;;
55148;SDS011;49539;48.160;11.530;2023-08-06T03:14:54;5.50;;;2.60;;
55148;SDS011;49539;48.160;11.530;2023-08-06T03:17:19;4.68;;;2.65;;
55148;SDS011;49539;48.160;11.530;2023-08-06T03:19:44;7.10;;;2.57;;
55148;SDS011;49539;48.160;11.530;2023-08-06T03:22:10;4.63;;;2.50;;
55148;SDS011;49539;48.160;11.530;2023-08-06T03:24:35;5.95;;;2.15;;
55148;SDS011;49539;48.160;11.530;2023-08-06T03:27:00;5.90;;;2.40;;
55148;SDS011;49539;48.160;11.530;2023-08-06T03:29:25;3.65;;;1.95;;
55148;SDS011;49539;48.160;11.530;2023-08-06T03:31:51;6.72;;;2.78;;
55148;SDS011;49539;48.160;11.530;2023-08-06T03:34:17;6.18;;;2.65;;
55148;SDS011;49539;48.160;11.530;2023-08-06T03:36:42;5.37;;;2.63;;
55148;SDS011;49539;48.160;11.530;2023-08-06T03:39:07;4.10;;;2.43;;
55148;SDS011;49539;48.160;11.530;2023-08-06T03:41:32;6.95;;;2.88;;
55148;SDS011;49539;48.160;11.530;2023-08-06T03:43:58;4.57;;;2.47;;
55148;SDS011;49539;48.160;11.530;2023-08-06T03:46:23;4.43;;;2.53;;
55148;SDS011;49539;48.160;11.530;2023-08-06T03:48:48;3.92;;;2.08;;
55148;SDS011;49539;48.160;11.530;2023-08-06T03:51:13;3.85;;;2.10;;
55148;SDS011;49539;48.160;11.530;2023-08-06T03:53:39;5.30;;;2.97;;
55148;SDS011;49539;48.160;11.530;2023-08-06T03:56:04;4.68;;;2.40;;
55148;SDS011;49539;48.160;11.530;2023-08-06T03:58:30;5.18;;;2.58;;
55148;SDS011;49539;48.160;11.530;2023-08-06T04:01:02;3.47;;;2.28;;
55148;SDS011;49539;48.160;11.530;2023-08-06T04:03:28;3.22;;;1.92;;
55148;SDS011;49539;48.160;11.530;2023-08-06T04:05:53;3.42;;;2.08;;
55148;SDS011;49539;48.160;11.530;2023-08-06T04:08:19;3.42;;;1.77;;
55148;SDS011;49539;48.160;11.530;2023-08-06T04:10:44;2.97;;;1.70;;
55148;SDS011;49539;48.160;11.530;2023-08-06T04:13:09;3.67;;;1.95;;
55148;SDS011;49539;48.160;11.530;2023-08-06T04:15:34;5.10;;;2.15;;
55148;SDS011;49539;48.160;11.530;2023-08-06T04:18:00;3.92;;;2.17;;
55148;SDS011;49539;48.160;11.530;2023-08-06T04:20:25;5.47;;;2.17;;
55148;SDS011;49539;48.160;11.530;2023-08-06T04:22:50;4.37;;;1.73;;
55148;SDS011;49539;48.160;11.530;2023-08-06T04:25:15;4.05;;;2.05;;
55148;SDS011;49539;48.160;11.530;2023-08-06T04:27:46;2.63;;;1.58;;
55148;SDS011;49539;48.160;11.530;2023-08-06T04:30:11;4.70;;;1.90;;
55148;SDS011;49539;48.160;11.530;2023-08-06T04:32:37;2.97;;;1.80;;
55148;SDS011;49539;48.160;11.530;2023-08-06T04:35:03;3.30;;;1.95;;
55148;SDS011;49539;48.160;11.530;2023-08-06T04:37:28;3.13;;;1.60;;
55148;SDS011;49539;48.160;11.530;2023-08-06T04:39:54;3.17;;;1.80;;
55148;SDS011;49539;48.160;11.530;2023-08-06T04:42:19;2.55;;;1.73;;
55148;SDS011;49539;48.160;11.530;2023-08-06T04:44:44;4.78;;;2.80;;
55148;SDS011;49539;48.160;11.530;2023-08-06T04:47:09;3.27;;;1.97;;
55148;SDS011;49539;48.160;11.530;2023-08-06T04:49:34;3.38;;;1.88;;
55148;SDS011;49539;48.160;11.530;2023-08-06T04:52:00;3.13;;;1.80;;
55148;SDS011;49539;48.160;11.530;2023-08-06T04:54:25;2.80;;;1.58;;
55148;SDS011;49539;48.160;11.530;2023-08-06T04:56:52;3.95;;;1.95;;
55148;SDS011;49539;48.160;11.530;2023-08-06T04:59:17;3.63;;;2.00;;
55148;SDS011;49539;48.160;11.530;2023-08-06T05:01:42;4.78;;;1.95;;
55148;SDS011;49539;48.160;11.530;2023-08-06T05:04:08;3.63;;;1.88;;
55148;SDS011;49539;48.160;11.530;2023-08-06T05:06:33;3.47;;;1.93;;
55148;SDS011;49539;48.160;11.530;2023-08-06T05:08:58;3.97;;;1.50;;
55148;SDS011;49539;48.160;11.530;2023-08-06T05:11:24;5.10;;;2.10;;
55148;SDS011;49539;48.160;11.530;2023-08-06T05:13:49;3.90;;;1.67;;
55148;SDS011;49539;48.160;11.530;2023-08-06T05:16:14;4.28;;;2.25;;
55148;SDS011;49539;48.160;11.530;2023-08-06T05:18:40;5.63;;;1.63;;
55148;SDS011;49539;48.160;11.530;2023-08-06T05:21:06;3.10;;;1.52;;
55148;SDS011;49539;48.160;11.530;2023-08-06T05:23:32;4.07;;;1.77;;
55148;SDS011;49539;48.160;11.530;2023-08-06T05:25:57;3.92;;;1.88;;
55148;SDS011;49539;48.160;11.530;2023-08-06T05:28:22;4.77;;;1.93;;
55148;SDS011;49539;48.160;11.530;2023-08-06T05:30:48;4.05;;;2.10;;
55148;SDS011;49539;48.160;11.530;2023-08-06T05:33:13;3.63;;;1.90;;
55148;SDS011;49539;48.160;11.530;2023-08-06T05:35:40;3.63;;;1.88;;
55148;SDS011;49539;48.160;11.530;2023-08-06T05:38:05;3.13;;;1.75;;
55148;SDS011;49539;48.160;11.530;2023-08-06T05:40:32;3.65;;;1.73;;
55148;SDS011;49539;48.160;11.530;2023-08-06T05:42:58;3.55;;;1.80;;
55148;SDS011;49539;48.160;11.530;2023-08-06T05:45:23;2.97;;;1.63;;
55148;SDS011;49539;48.160;11.530;2023-08-06T05:47:48;3.10;;;1.52;;
55148;SDS011;49539;48.160;11.530;2023-08-06T05:50:14;3.50;;;1.60;;
55148;SDS011;49539;48.160;11.530;2023-08-06T05:52:39;2.53;;;1.42;;
55148;SDS011;49539;48.160;11.530;2023-08-06T05:55:05;3.55;;;1.80;;
55148;SDS011;49539;48.160;11.530;2023-08-06T05:57:30;2.33;;;1.05;;
55148;SDS011;49539;48.160;11.530;2023-08-06T05:59:55;3.33;;;1.77;;
55148;SDS011;49539;48.160;11.530;2023-08-06T06:02:22;3.38;;;1.50;;
55148;SDS011;49539;48.160;11.530;2023-08-06T06:04:48;3.35;;;1.60;;
55148;SDS011;49539;48.160;11.530;2023-08-06T06:07:13;3.47;;;2.03;;
55148;SDS011;49539;48.160;11.530;2023-08-06T06:09:40;2.90;;;1.50;;
55148;SDS011;49539;48.160;11.530;2023-08-06T06:12:06;3.47;;;1.50;;
55148;SDS011;49539;48.160;11.530;2023-08-06T06:14:31;3.83;;;1.52;;
55148;SDS011;49539;48.160;11.530;2023-08-06T06:16:56;1.73;;;1.10;;
55148;SDS011;49539;48.160;11.530;2023-08-06T06:19:22;3.28;;;1.52;;
55148;SDS011;49539;48.160;11.530;2023-08-06T06:21:47;4.30;;;1.65;;
55148;SDS011;49539;48.160;11.530;2023-08-06T06:24:12;2.90;;;1.63;;
55148;SDS011;49539;48.160;11.530;2023-08-06T06:26:38;2.20;;;1.20;;
55148;SDS011;49539;48.160;11.530;2023-08-06T06:29:03;2.88;;;1.40;;
55148;SDS011;49539;48.160;11.530;2023-08-06T06:31:28;3.97;;;1.08;;
55148;SDS011;49539;48.160;11.530;2023-08-06T06:33:54;3.55;;;1.40;;
55148;SDS011;49539;48.160;11.530;2023-08-06T06:36:19;2.15;;;1.00;;
55148;SDS011;49539;48.160;11.530;2023-08-06T06:38:44;2.67;;;1.23;;
55148;SDS011;49539;48.160;11.530;2023-08-06T06:41:10;1.77;;;1.10;;
55148;SDS011;49539;48.160;11.530;2023-08-06T06:43:35;1.70;;;0.90;;
55148;SDS011;49539;48.160;11.530;2023-08-06T06:46:01;3.13;;;1.40;;
55148;SDS011;49539;48.160;11.530;2023-08-06T06:48:27;2.40;;;1.33;;
55148;SDS011;49539;48.160;11.530;2023-08-06T06:50:53;3.75;;;1.00;;
55148;SDS011;49539;48.160;11.530;2023-08-06T06:53:18;2.22;;;1.13;;
55148;SDS011;49539;48.160;11.530;2023-08-06T06:55:44;1.85;;;1.10;;
55148;SDS011;49539;48.160;11.530;2023-08-06T06:58:09;2.25;;;1.20;;
55148;SDS011;49539;48.160;11.530;2023-08-06T07:00:38;1.95;;;0.90;;
55148;SDS011;49539;48.160;11.530;2023-08-06T07:03:03;2.95;;;1.23;;
55148;SDS011;49539;48.160;11.530;2023-08-06T07:05:29;2.60;;;1.25;;
55148;SDS011;49539;48.160;11.530;2023-08-06T07:07:54;3.47;;;1.25;;
55148;SDS011;49539;48.160;11.530;2023-08-06T07:10:19;1.42;;;0.65;;
55148;SDS011;49539;48.160;11.530;2023-08-06T07:12:45;1.58;;;0.73;;
55148;SDS011;49539;48.160;11.530;2023-08-06T07:15:10;1.38;;;0.55;;
55148;SDS011;49539;48.160;11.530;2023-08-06T07:17:36;2.00;;;0.93;;
55148;SDS011;49539;48.160;11.530;2023-08-06T07:20:02;1.10;;;0.73;;
55148;SDS011;49539;48.160;11.530;2023-08-06T07:22:28;1.08;;;0.60;;
55148;SDS011;49539;48.160;11.530;2023-08-06T07:24:53;3.80;;;0.50;;
55148;SDS011;49539;48.160;11.530;2023-08-06T07:27:19;1.90;;;0.70;;
55148;SDS011;49539;48.160;11.530;2023-08-06T07:29:44;1.30;;;0.65;;
55148;SDS011;49539;48.160;11.530;2023-08-06T07:32:09;0.77;;;0.38;;
55148;SDS011;49539;48.160;11.530;2023-08-06T07:34:34;1.15;;;0.60;;
55148;SDS011;49539;48.160;11.530;2023-08-06T07:37:00;1.80;;;0.47;;
55148;SDS011;49539;48.160;11.530;2023-08-06T07:39:25;2.58;;;0.85;;
55148;SDS011;49539;48.160;11.530;2023-08-06T07:41:50;2.40;;;0.90;;
55148;SDS011;49539;48.160;11.530;2023-08-06T07:44:16;1.80;;;0.93;;
55148;SDS011;49539;48.160;11.530;2023-08-06T07:46:41;1.63;;;0.70;;
55148;SDS011;49539;48.160;11.530;2023-08-06T07:49:06;0.80;;;0.50;;
55148;SDS011;49539;48.160;11.530;2023-08-06T07:51:31;4.10;;;0.82;;
55148;SDS011;49539;48.160;11.530;2023-08-06T07:53:57;1.83;;;0.70;;
55148;SDS011;49539;48.160;11.530;2023-08-06T07:56:22;1.25;;;0.70;;
55148;SDS011;49539;48.160;11.530;2023-08-06T07:58:48;2.55;;;0.60;;
55148;SDS011;49539;48.160;11.530;2023-08-06T08:01:13;1.17;;;0.68;;
55148;SDS011;49539;48.160;11.530;2023-08-06T08:03:38;6.53;;;0.85;;
55148;SDS011;49539;48.160;11.530;2023-08-06T08:06:04;3.00;;;0.70;;
55148;SDS011;49539;48.160;11.530;2023-08-06T08:08:29;1.63;;;0.70;;
55148;SDS011;49539;48.160;11.530;2023-08-06T08:10:54;3.73;;;0.97;;
55148;SDS011;49539;48.160;11.530;2023-08-06T08:13:20;2.15;;;0.57;;
55148;SDS011;49539;48.160;11.530;2023-08-06T08:15:45;2.00;;;0.63;;
55148;SDS011;49539;48.160;11.530;2023-08-06T08:18:11;2.83;;;0.77;;
55148;SDS011;49539;48.160;11.530;2023-08-06T08:20:37;1.77;;;0.60;;
55148;SDS011;49539;48.160;11.530;2023-08-06T08:23:02;1.98;;;0.80;;
55148;SDS011;49539;48.160;11.530;2023-08-06T08:25:27;0.60;;;0.55;;
55148;SDS011;49539;48.160;11.530;2023-08-06T08:27:53;1.98;;;0.40;;
55148;SDS011;49539;48.160;11.530;2023-08-06T08:30:19;1.95;;;0.50;;
55148;SDS011;49539;48.160;11.530;2023-08-06T08:32:44;1.48;;;0.60;;
55148;SDS011;49539;48.160;11.530;2023-08-06T08:35:09;2.87;;;0.60;;
55148;SDS011;49539;48.160;11.530;2023-08-06T08:37:38;1.27;;;0.45;;
55148;SDS011;49539;48.160;11.530;2023-08-06T08:40:03;0.50;;;0.50;;
55148;SDS011;49539;48.160;11.530;2023-08-06T08:42:29;1.27;;;0.40;;
55148;SDS011;49539;48.160;11.530;2023-08-06T08:44:54;0.90;;;0.43;;
55148;SDS011;49539;48.160;11.530;2023-08-06T08:47:20;1.67;;;0.50;;
55148;SDS011;49539;48.160;11.530;2023-08-06T08:49:45;2.00;;;0.40;;
55148;SDS011;49539;48.160;11.530;2023-08-06T08:52:11;0.82;;;0.40;;
55148;SDS011;49539;48.160;11.530;2023-08-06T08:54:38;0.60;;;0.40;;
55148;SDS011;49539;48.160;11.530;2023-08-06T08:57:03;0.52;;;0.38;;
55148;SDS011;49539;48.160;11.530;2023-08-06T08:59:29;0.70;;;0.40;;
55148;SDS011;49539;48.160;11.530;2023-08-06T09:01:54;0.63;;;0.40;;
55148;SDS011;49539;48.160;11.530;2023-08-06T09:04:20;8.57;;;0.75;;
55148;SDS011;49539;48.160;11.530;2023-08-06T09:06:46;0.50;;;0.30;;
55148;SDS011;49539;48.160;11.530;2023-08-06T09:09:12;1.15;;;0.43;;
55148;SDS011;49539;48.160;11.530;2023-08-06T09:11:44;4.25;;;0.45;;
55148;SDS011;49539;48.160;11.530;2023-08-06T09:14:10;2.28;;;0.40;;
55148;SDS011;49539;48.160;11.530;2023-08-06T09:16:36;1.52;;;0.45;;
55148;SDS011;49539;48.160;11.530;2023-08-06T09:19:09;0.50;;;0.20;;
55148;SDS011;49539;48.160;11.530;2023-08-06T09:21:41;2.35;;;0.40;;
55148;SDS011;49539;48.160;11.530;2023-08-06T09:24:13;0.90;;;0.30;;
55148;SDS011;49539;48.160;11.530;2023-08-06T09:26:41;0.50;;;0.20;;
55148;SDS011;49539;48.160;11.530;2023-08-06T09:29:07;0.38;;;0.20;;
55148;SDS011;49539;48.160;11.530;2023-08-06T09:31:54;1.17;;;0.47;;
55148;SDS011;49539;48.160;11.530;2023-08-06T09:34:19;2.38;;;0.30;;
55148;SDS011;49539;48.160;11.530;2023-08-06T09:36:46;0.75;;;0.40;;
55148;SDS011;49539;48.160;11.530;2023-08-06T09:39:18;0.28;;;0.25;;
55148;SDS011;49539;48.160;11.530;2023-08-06T09:41:44;1.05;;;0.40;;
55148;SDS011;49539;48.160;11.530;2023-08-06T09:44:20;0.20;;;0.20;;
55148;SDS011;49539;48.160;11.530;2023-08-06T09:46:49;0.47;;;0.30;;
55148;SDS011;49539;48.160;11.530;2023-08-06T09:49:16;0.22;;;0.20;;
55148;SDS011;49539;48.160;11.530;2023-08-06T09:51:41;0.30;;;0.20;;
55148;SDS011;49539;48.160;11.530;2023-08-06T09:54:06;0.77;;;0.20;;
55148;SDS011;49539;48.160;11.530;2023-08-06T09:56:33;1.00;;;0.30;;
55148;SDS011;49539;48.160;11.530;2023-08-06T09:59:02;1.17;;;0.20;;
55148;SDS011;49539;48.160;11.530;2023-08-06T10:01:29;0.60;;;0.20;;
55148;SDS011;49539;48.160;11.530;2023-08-06T10:03:54;0.65;;;0.22;;
55148;SDS011;49539;48.160;11.530;2023-08-06T10:06:22;1.02;;;0.40;;
55148;SDS011;49539;48.160;11.530;2023-08-06T10:08:48;0.45;;;0.30;;
55148;SDS011;49539;48.160;11.530;2023-08-06T10:11:14;0.47;;;0.30;;
55148;SDS011;49539;48.160;11.530;2023-08-06T10:13:39;0.30;;;0.20;;
55148;SDS011;49539;48.160;11.530;2023-08-06T10:16:05;0.30;;;0.30;;
55148;SDS011;49539;48.160;11.530;2023-08-06T10:18:33;0.30;;;0.20;;
55148;SDS011;49539;48.160;11.530;2023-08-06T10:21:00;0.20;;;0.20;;
55148;SDS011;49539;48.160;11.530;2023-08-06T10:23:35;0.10;;;0.10;;
55148;SDS011;49539;48.160;11.530;2023-08-06T10:26:00;0.30;;;0.30;;
55148;SDS011;49539;48.160;11.530;2023-08-06T10:28:33;0.35;;;0.30;;
55148;SDS011;49539;48.160;11.530;2023-08-06T10:31:00;1.10;;;0.20;;
55148;SDS011;49539;48.160;11.530;2023-08-06T10:33:25;0.10;;;0.10;;
55148;SDS011;49539;48.160;11.530;2023-08-06T10:36:04;0.43;;;0.25;;
55148;SDS011;49539;48.160;11.530;2023-08-06T10:38:34;0.20;;;0.20;;
55148;SDS011;49539;48.160;11.530;2023-08-06T10:41:02;0.30;;;0.30;;
55148;SDS011;49539;48.160;11.530;2023-08-06T10:43:28;1.75;;;0.20;;
55148;SDS011;49539;48.160;11.530;2023-08-06T10:45:54;0.20;;;0.20;;
55148;SDS011;49539;48.160;11.530;2023-08-06T10:48:33;0.95;;;0.30;;
55148;SDS011;49539;48.160;11.530;2023-08-06T10:51:00;1.30;;;0.40;;
55148;SDS011;49539;48.160;11.530;2023-08-06T10:53:25;0.20;;;0.20;;
55148;SDS011;49539;48.160;11.530;2023-08-06T10:55:50;0.38;;;0.20;;
55148;SDS011;49539;48.160;11.530;2023-08-06T10:58:16;0.45;;;0.20;;
55148;SDS011;49539;48.160;11.530;2023-08-06T11:00:41;0.52;;;0.30;;
55148;SDS011;49539;48.160;11.530;2023-08-06T11:03:07;0.50;;;0.20;;
55148;SDS011;49539;48.160;11.530;2023-08-06T11:05:33;0.28;;;0.10;;
55148;SDS011;49539;48.160;11.530;2023-08-06T11:07:58;2.28;;;0.20;;
55148;SDS011;49539;48.160;11.530;2023-08-06T11:10:23;0.70;;;0.30;;
55148;SDS011;49539;48.160;11.530;2023-08-06T11:12:49;0.10;;;0.10;;
55148;SDS011;49539;48.160;11.530;2023-08-06T11:15:14;0.20;;;0.20;;
55148;SDS011;49539;48.160;11.530;2023-08-06T11:17:40;1.77;;;0.20;;
55148;SDS011;49539;48.160;11.530;2023-08-06T11:20:06;0.10;;;0.10;;
55148;SDS011;49539;48.160;11.530;2023-08-06T11:22:31;0.20;;;0.20;;
55148;SDS011;49539;48.160;11.530;2023-08-06T11:24:57;1.23;;;0.10;;
55148;SDS011;49539;48.160;11.530;2023-08-06T11:27:22;0.20;;;0.10;;
55148;SDS011;49539;48.160;11.530;2023-08-06T11:29:48;0.38;;;0.30;;
55148;SDS011;49539;48.160;11.530;2023-08-06T11:32:13;0.20;;;0.20;;
55148;SDS011;49539;48.160;11.530;2023-08-06T11:34:39;0.10;;;0.10;;
55148;SDS011;49539;48.160;11.530;2023-08-06T11:37:05;0.77;;;0.22;;
55148;SDS011;49539;48.160;11.530;2023-08-06T11:39:34;0.20;;;0.20;;
55148;SDS011;49539;48.160;11.530;2023-08-06T11:42:00;3.60;;;0.20;;
55148;SDS011;49539;48.160;11.530;2023-08-06T11:44:31;0.20;;;0.20;;
55148;SDS011;49539;48.160;11.530;2023-08-06T11:46:59;0.20;;;0.20;;
55148;SDS011;49539;48.160;11.530;2023-08-06T11:49:40;0.85;;;0.20;;
55148;SDS011;49539;48.160;11.530;2023-08-06T11:54:41;0.20;;;0.20;;
55148;SDS011;49539;48.160;11.530;2023-08-06T11:57:07;2.00;;;0.20;;
55148;SDS011;49539;48.160;11.530;2023-08-06T11:59:32;1.77;;;0.20;;
55148;SDS011;49539;48.160;11.530;2023-08-06T12:01:57;0.30;;;0.28;;
55148;SDS011;49539;48.160;11.530;2023-08-06T12:04:23;0.20;;;0.20;;
55148;SDS011;49539;48.160;11.530;2023-08-06T12:06:48;0.10;;;0.10;;
55148;SDS011;49539;48.160;11.530;2023-08-06T12:09:14;0.52;;;0.20;;
55148;SDS011;49539;48.160;11.530;2023-08-06T12:11:39;0.40;;;0.20;;
55148;SDS011;49539;48.160;11.530;2023-08-06T12:14:04;1.58;;;0.35;;
55148;SDS011;49539;48.160;11.530;2023-08-06T12:16:30;5.53;;;0.30;;
55148;SDS011;49539;48.160;11.530;2023-08-06T12:18:55;0.20;;;0.20;;
55148;SDS011;49539;48.160;11.530;2023-08-06T12:21:20;0.20;;;0.20;;
55148;SDS011;49539;48.160;11.530;2023-08-06T12:23:45;0.20;;;0.20;;
55148;SDS011;49539;48.160;11.530;2023-08-06T12:26:11;0.20;;;0.20;;
55148;SDS011;49539;48.160;11.530;2023-08-06T12:28:36;0.10;;;0.10;;
55148;SDS011;49539;48.160;11.530;2023-08-06T12:31:02;2.55;;;0.30;;
55148;SDS011;49539;48.160;11.530;2023-08-06T12:33:27;0.30;;;0.20;;
55148;SDS011;49539;48.160;11.530;2023-08-06T12:35:52;0.20;;;0.20;;
55148;SDS011;49539;48.160;11.530;2023-08-06T12:38:22;0.20;;;0.20;;
55148;SDS011;49539;48.160;11.530;2023-08-06T12:40:47;0.20;;;0.20;;
55148;SDS011;49539;48.160;11.530;2023-08-06T12:43:12;1.02;;;0.20;;
55148;SDS011;49539;48.160;11.530;2023-08-06T12:45:38;0.10;;;0.10;;
55148;SDS011;49539;48.160;11.530;2023-08-06T12:48:03;0.30;;;0.30;;
55148;SDS011;49539;48.160;11.530;2023-08-06T12:50:29;0.45;;;0.20;;
55148;SDS011;49539;48.160;11.530;2023-08-06T12:52:54;0.30;;;0.30;;
55148;SDS011;49539;48.160;11.530;2023-08-06T12:55:19;0.73;;;0.30;;
55148;SDS011;49539;48.160;11.530;2023-08-06T12:57:45;0.20;;;0.20;;
55148;SDS011;49539;48.160;11.530;2023-08-06T13:00:10;0.10;;;0.10;;
55148;SDS011;49539;48.160;11.530;2023-08-06T13:02:35;2.17;;;0.25;;
55148;SDS011;49539;48.160;11.530;2023-08-06T13:05:01;0.10;;;0.10;;
55148;SDS011;49539;48.160;11.530;2023-08-06T13:07:30;0.57;;;0.20;;
55148;SDS011;49539;48.160;11.530;2023-08-06T13:09:55;0.10;;;0.10;;
55148;SDS011;49539;48.160;11.530;2023-08-06T13:12:20;0.50;;;0.20;;
55148;SDS011;49539;48.160;11.530;2023-08-06T13:14:48;0.28;;;0.20;;
55148;SDS011;49539;48.160;11.530;2023-08-06T13:17:13;0.45;;;0.20;;
55148;SDS011;49539;48.160;11.530;2023-08-06T13:19:38;0.63;;;0.20;;
55148;SDS011;49539;48.160;11.530;2023-08-06T13:22:03;0.20;;;0.20;;
55148;SDS011;49539;48.160;11.530;2023-08-06T13:24:30;0.22;;;0.22;;
55148;SDS011;49539;48.160;11.530;2023-08-06T13:26:56;0.22;;;0.20;;
55148;SDS011;49539;48.160;11.530;2023-08-06T13:29:21;0.68;;;0.30;;
55148;SDS011;49539;48.160;11.530;2023-08-06T13:31:46;0.40;;;0.30;;
55148;SDS011;49539;48.160;11.530;2023-08-06T13:34:11;0.20;;;0.20;;
55148;SDS011;49539;48.160;11.530;2023-08-06T13:36:37;0.28;;;0.28;;
55148;SDS011;49539;48.160;11.530;2023-08-06T13:39:02;0.28;;;0.20;;
55148;SDS011;49539;48.160;11.530;2023-08-06T13:41:28;0.10;;;0.10;;
55148;SDS011;49539;48.160;11.530;2023-08-06T13:43:54;0.85;;;0.30;;
55148;SDS011;49539;48.160;11.530;2023-08-06T13:46:19;0.40;;;0.20;;
55148;SDS011;49539;48.160;11.530;2023-08-06T13:48:45;1.02;;;0.45;;
55148;SDS011;49539;48.160;11.530;2023-08-06T13:51:11;0.63;;;0.40;;
55148;SDS011;49539;48.160;11.530;2023-08-06T13:53:37;2.08;;;0.40;;
55148;SDS011;49539;48.160;11.530;2023-08-06T13:56:02;1.30;;;0.40;;
55148;SDS011;49539;48.160;11.530;2023-08-06T13:58:28;0.22;;;0.22;;
55148;SDS011;49539;48.160;11.530;2023-08-06T14:00:53;1.02;;;0.20;;
55148;SDS011;49539;48.160;11.530;2023-08-06T14:03:19;0.20;;;0.20;;
55148;SDS011;49539;48.160;11.530;2023-08-06T14:05:45;0.25;;;0.22;;
55148;SDS011;49539;48.160;11.530;2023-08-06T14:08:10;0.40;;;0.30;;
55148;SDS011;49539;48.160;11.530;2023-08-06T14:10:35;0.20;;;0.20;;
55148;SDS011;49539;48.160;11.530;2023-08-06T14:13:00;0.30;;;0.30;;
55148;SDS011;49539;48.160;11.530;2023-08-06T14:15:26;0.27;;;0.20;;
55148;SDS011;49539;48.160;11.530;2023-08-06T14:17:51;0.40;;;0.40;;
55148;SDS011;49539;48.160;11.530;2023-08-06T14:20:17;0.38;;;0.30;;
55148;SDS011;49539;48.160;11.530;2023-08-06T14:22:42;0.32;;;0.28;;
55148;SDS011;49539;48.160;11.530;2023-08-06T14:25:07;0.50;;;0.30;;
55148;SDS011;49539;48.160;11.530;2023-08-06T14:27:33;0.38;;;0.25;;
55148;SDS011;49539;48.160;11.530;2023-08-06T14:29:58;0.50;;;0.30;;
55148;SDS011;49539;48.160;11.530;2023-08-06T14:32:24;0.28;;;0.28;;